Time;durP1;ratioP1;P1;durP2;ratioP2;P2;SDS_P1;SDS_P2;PMS_P1;PMS_P2;Temp;Humidity;BMP_temperature;BMP_pressure;BME280_temperature;BME280_humidity;BME280_pressure;Samples;Min_cycle;Max_cycle;Signal;HPM_P1;HPM_P2
2023/10/19 00:02:07;;;;;;;14.18;8.85;;;11.20;99.90;;;10.77;100.00;95643.38;5016745;28;20080;-40
2023/10/19 00:04:35;;;;;;;12.02;9.10;;;11.20;99.90;;;10.78;100.00;95638.94;5017918;28;20056;-41
2023/10/19 00:07:04;;;;;;;11.63;8.18;;;11.20;99.90;;;10.77;100.00;95638.09;5014283;28;20510;-42
2023/10/19 00:09:37;;;;;;;16.08;9.35;;;11.20;99.90;;;10.79;100.00;95641.47;5003229;28;20037;-39
2023/10/19 00:12:05;;;;;;;11.60;8.90;;;11.30;99.90;;;10.80;100.00;95632.63;5019893;28;20163;-40
2023/10/19 00:14:32;;;;;;;10.48;8.25;;;11.30;99.90;;;10.70;100.00;95606.00;5020819;28;20041;-40
2023/10/19 00:17:01;;;;;;;10.63;8.57;;;11.30;99.90;;;10.83;100.00;95632.41;5016003;28;20521;-39
2023/10/19 00:19:30;;;;;;;14.50;9.52;;;11.30;99.90;;;10.85;100.00;95630.50;5020259;28;21081;-40
2023/10/19 00:22:08;;;;;;;11.80;8.15;;;11.30;99.90;;;10.85;100.00;95633.16;5013130;28;20049;-39
2023/10/19 00:24:34;;;;;;;14.50;8.88;;;11.40;99.90;;;10.86;100.00;95634.00;5002498;28;20340;-39
2023/10/19 00:27:06;;;;;;;14.98;8.73;;;11.30;99.90;;;10.85;100.00;95627.03;5020404;28;20252;-39
2023/10/19 00:29:33;;;;;;;9.57;7.63;;;11.30;99.90;;;10.91;100.00;95638.97;5019285;28;20051;-40
2023/10/19 00:31:59;;;;;;;11.20;7.45;;;11.40;99.90;;;10.94;100.00;95638.78;5018543;28;20374;-39
2023/10/19 00:34:28;;;;;;;9.13;6.45;;;11.40;99.90;;;10.99;100.00;95637.50;5015702;28;20413;-40
2023/10/19 00:37:07;;;;;;;9.40;6.03;;;11.50;99.90;;;11.04;100.00;95635.41;5016845;28;20037;-43
2023/10/19 00:39:53;;;;;;;5.72;4.18;;;11.50;99.90;;;11.17;100.00;95638.06;5014824;28;20025;-42
2023/10/19 00:42:24;;;;;;;5.97;4.22;;;11.60;99.90;;;11.31;100.00;95629.22;5018347;28;20037;-42
2023/10/19 00:44:50;;;;;;;7.38;3.70;;;11.70;99.90;;;11.44;100.00;95629.22;5019130;28;20038;-39
2023/10/19 00:47:18;;;;;;;7.72;4.10;;;11.90;99.90;;;11.53;100.00;95623.31;5016034;28;20041;-41
2023/10/19 00:49:46;;;;;;;5.43;3.45;;;12.00;99.90;;;11.61;100.00;95618.34;5018661;28;21181;-40
2023/10/19 00:52:19;;;;;;;4.78;3.67;;;12.10;99.90;;;11.68;100.00;95602.06;5011405;28;20100;-40
2023/10/19 00:57:20;;;;;;;10.25;3.80;;;12.20;99.90;;;11.79;100.00;95599.50;5028621;28;20433;-40
2023/10/19 00:59:54;;;;;;;6.10;3.83;;;12.20;99.90;;;11.80;100.00;95594.13;5016574;28;20424;-40
2023/10/19 01:04:56;;;;;;;5.47;3.53;;;12.30;99.90;;;11.83;100.00;95577.25;5018270;28;20426;-41
2023/10/19 01:07:29;;;;;;;3.88;3.40;;;12.30;99.90;;;11.80;100.00;95578.28;5014550;28;20033;-41
2023/10/19 01:10:00;;;;;;;5.53;3.83;;;12.30;99.90;;;11.80;100.00;95575.66;5017754;28;20501;-40
2023/10/19 01:12:33;;;;;;;5.77;4.27;;;12.20;99.90;;;11.79;100.00;95575.75;5017689;28;20033;-41
2023/10/19 01:15:16;;;;;;;8.48;3.67;;;12.20;99.90;;;11.78;100.00;95576.72;5017101;28;20037;-44
2023/10/19 01:17:44;;;;;;;5.28;3.88;;;12.20;99.90;;;11.75;100.00;95571.66;5010096;28;20037;-40
2023/10/19 01:23:44;;;;;;;5.95;3.95;;;12.20;99.90;;;11.76;100.00;95558.34;5019587;28;20401;-40
2023/10/19 01:28:24;;;;;;;8.27;3.90;;;12.20;99.90;;;11.75;100.00;95542.59;5020855;28;20025;-42
2023/10/19 01:30:53;;;;;;;5.97;4.05;;;12.20;99.90;;;11.78;100.00;95539.75;5016834;28;20824;-40
2023/10/19 01:33:19;;;;;;;5.35;3.50;;;12.30;99.90;;;11.87;100.00;95547.00;5014783;28;20521;-39
2023/10/19 01:38:31;;;;;;;5.43;3.78;;;12.30;99.90;;;11.92;100.00;95547.56;5018661;28;20120;-40
2023/10/19 01:41:13;;;;;;;7.55;4.40;;;12.30;99.90;;;11.94;100.00;95548.28;5019526;28;20032;-39
2023/10/19 01:43:40;;;;;;;6.75;4.43;;;12.30;99.90;;;11.96;100.00;95543.72;5018851;28;20037;-40
2023/10/19 01:46:11;;;;;;;6.25;4.50;;;12.40;99.90;;;11.99;100.00;95537.41;5024281;28;20112;-39
2023/10/19 01:48:41;;;;;;;6.10;4.22;;;12.40;99.90;;;12.07;100.00;95550.06;5016200;28;20481;-40
2023/10/19 01:51:15;;;;;;;7.00;3.75;;;12.50;99.90;;;12.07;100.00;95542.13;5015890;28;20429;-40
2023/10/19 01:53:44;;;;;;;6.43;3.97;;;12.50;99.90;;;12.07;100.00;95532.38;5015091;28;20115;-40
2023/10/19 01:56:12;;;;;;;4.82;3.90;;;12.50;99.90;;;12.10;100.00;95533.97;5014500;28;20356;-42
2023/10/19 01:58:39;;;;;;;5.13;3.17;;;12.50;99.90;;;12.13;100.00;95533.75;5015725;28;20064;-40
2023/10/19 02:03:36;;;;;;;5.63;3.50;;;12.50;99.90;;;12.21;100.00;95536.69;5022530;28;20099;-41
2023/10/19 02:06:10;;;;;;;4.63;3.08;;;12.60;99.90;;;12.20;100.00;95525.28;5006303;28;20536;-41
2023/10/19 02:08:38;;;;;;;5.75;3.35;;;12.70;99.90;;;12.23;100.00;95525.03;5016996;28;20037;-39
2023/10/19 02:11:17;;;;;;;5.28;3.10;;;12.70;99.90;;;12.29;100.00;95529.03;5013205;28;20350;-39
2023/10/19 02:13:47;;;;;;;4.90;3.20;;;12.70;99.90;;;12.34;100.00;95524.22;5015721;28;20087;-40
2023/10/19 02:16:20;;;;;;;4.25;3.00;;;12.70;99.90;;;12.26;100.00;95512.53;5006569;28;20476;-40
2023/10/19 02:18:45;;;;;;;5.18;3.00;;;12.70;99.90;;;12.33;100.00;95519.09;5014123;28;20033;-39
2023/10/19 02:21:14;;;;;;;4.00;2.88;;;12.70;99.90;;;12.34;100.00;95518.94;5020645;28;20090;-39
2023/10/19 02:23:44;;;;;;;6.15;3.28;;;12.70;99.90;;;12.35;100.00;95520.66;5015725;28;20065;-39
2023/10/19 02:26:13;;;;;;;4.65;2.90;;;12.70;99.90;;;12.21;100.00;95494.41;5016933;28;20220;-41
2023/10/19 02:28:40;;;;;;;3.85;3.10;;;12.70;99.90;;;12.35;100.00;95522.47;5018118;28;20037;-40
2023/10/19 02:31:15;;;;;;;3.60;2.70;;;12.70;99.90;;;12.34;100.00;95515.47;5015270;28;20025;-41
2023/10/19 02:34:00;;;;;;;8.05;3.08;;;12.70;99.90;;;12.33;100.00;95509.34;5014568;28;20028;-40
2023/10/19 02:36:31;;;;;;;4.97;2.65;;;12.70;99.90;;;12.31;100.00;95513.91;5002398;28;20319;-38
2023/10/19 02:39:07;;;;;;;5.53;3.17;;;12.70;99.90;;;12.26;100.00;95510.75;5017002;28;20044;-40
2023/10/19 02:41:35;;;;;;;6.70;3.15;;;12.60;99.90;;;12.18;100.00;95510.47;5006566;28;20036;-40
2023/10/19 02:46:32;;;;;;;4.03;2.72;;;12.50;99.90;;;12.04;100.00;95511.47;5012993;28;20065;-39
2023/10/19 02:49:18;;;;;;;4.25;2.78;;;12.40;99.90;;;11.95;100.00;95502.44;5017607;28;20344;-41
2023/10/19 02:51:45;;;;;;;3.50;2.65;;;12.40;99.90;;;11.90;100.00;95506.31;5016450;28;20117;-40
2023/10/19 02:54:19;;;;;;;5.45;2.85;;;12.30;99.90;;;11.83;100.00;95498.00;5014047;28;20025;-39
2023/10/19 02:57:02;;;;;;;5.82;3.28;;;12.20;99.90;;;11.75;100.00;95492.44;5012084;28;20344;-40
2023/10/19 02:59:28;;;;;;;4.85;3.15;;;12.10;99.90;;;11.65;100.00;95498.38;5014026;28;20463;-40
2023/10/19 03:02:01;;;;;;;4.57;2.75;;;12.10;99.90;;;11.57;100.00;95492.78;5011446;28;20501;-39
2023/10/19 03:04:28;;;;;;;;;;;12.00;99.90;;;11.48;100.00;95490.81;5010036;28;20048;-39
2023/10/19 03:06:57;;;;;;;6.90;3.45;;;11.90;99.90;;;11.38;100.00;95488.00;5015702;28;19936;-40
2023/10/19 03:09:28;;;;;;;7.20;3.30;;;11.80;99.90;;;11.29;100.00;95491.28;5008980;28;20034;-42
2023/10/19 03:12:04;;;;;;;5.80;3.85;;;11.70;99.90;;;11.26;100.00;95486.22;5011878;28;20505;-40
2023/10/19 03:14:30;;;;;;;4.65;3.13;;;11.70;99.90;;;11.14;100.00;95474.72;5013011;28;20457;-41
2023/10/19 03:16:57;;;;;;;6.15;3.88;;;11.60;99.90;;;11.14;100.00;95474.72;5006592;28;20030;-39
2023/10/19 03:19:25;;;;;;;5.82;3.65;;;11.60;99.90;;;11.07;100.00;95474.31;5010709;28;20132;-39
2023/10/19 03:21:50;;;;;;;5.80;3.53;;;11.50;99.90;;;11.03;100.00;95472.81;5013863;28;20084;-38
2023/10/19 03:24:36;;;;;;;4.55;3.75;;;11.40;99.90;;;11.03;100.00;95470.19;5010004;28;20382;-40
2023/10/19 03:27:16;;;;;;;3.90;3.17;;;11.40;99.90;;;11.01;100.00;95458.06;5020206;28;20457;-39
2023/10/19 03:29:47;;;;;;;5.10;3.03;;;11.40;99.90;;;11.03;100.00;95464.91;5019388;28;20030;-40
2023/10/19 03:32:15;;;;;;;3.45;2.45;;;11.50;99.90;;;11.04;100.00;95461.31;5016475;28;20116;-40
2023/10/19 03:34:47;;;;;;;3.88;2.97;;;11.40;99.90;;;10.99;100.00;95452.06;5016190;28;20029;-41
2023/10/19 03:37:14;;;;;;;3.53;2.70;;;11.50;99.90;;;10.99;100.00;95457.34;5016527;28;20030;-41
2023/10/19 03:39:41;;;;;;;4.13;2.80;;;11.40;99.90;;;10.98;100.00;95453.00;5013515;28;20088;-43
2023/10/19 03:42:13;;;;;;;3.83;3.10;;;11.50;99.90;;;11.05;100.00;95456.88;5017996;28;20030;-41
2023/10/19 03:44:53;;;;;;;5.55;3.90;;;11.50;99.90;;;10.99;100.00;95444.16;4994708;28;20107;-40
2023/10/19 03:47:20;;;;;;;9.73;5.20;;;11.50;99.90;;;11.06;100.00;95454.16;5016600;28;20032;-40
2023/10/19 03:49:50;;;;;;;7.85;4.82;;;11.50;99.90;;;11.07;100.00;95454.97;5015648;28;20029;-40
2023/10/19 03:54:42;;;;;;;6.07;4.93;;;11.40;99.90;;;11.02;100.00;95446.56;5013461;28;20044;-40
2023/10/19 03:57:29;;;;;;;7.43;4.57;;;11.50;99.90;;;10.93;100.00;95428.72;5016923;28;20040;-40
2023/10/19 03:59:57;;;;;;;6.40;4.50;;;11.50;99.90;;;10.99;100.00;95442.34;5011470;28;23122;-41
2023/10/19 04:02:35;;;;;;;7.80;3.95;;;11.40;99.90;;;11.01;100.00;95436.97;5012078;28;20044;-40
2023/10/19 04:05:02;;;;;;;5.30;3.67;;;11.40;99.90;;;11.03;100.00;95437.69;5012040;28;20991;-41
2023/10/19 04:07:31;;;;;;;5.72;3.60;;;11.50;99.90;;;11.06;100.00;95432.22;5005218;28;20633;-41
2023/10/19 04:10:04;;;;;;;7.47;3.40;;;11.50;99.90;;;11.07;100.00;95423.34;5010219;28;20498;-41
2023/10/19 04:12:35;;;;;;;4.25;3.10;;;11.50;99.90;;;11.10;100.00;95428.41;5009328;28;20037;-40
2023/10/19 04:15:16;;;;;;;3.90;3.17;;;11.50;99.90;;;11.17;100.00;95413.81;5014003;28;20030;-41
2023/10/19 04:17:43;;;;;;;3.55;3.20;;;11.60;99.90;;;11.24;100.00;95420.34;5018734;28;20040;-40
2023/10/19 04:22:45;;;;;;;4.35;2.88;;;11.70;99.90;;;11.33;100.00;95415.38;5013134;28;20045;-39
2023/10/19 04:25:15;;;;;;;4.40;3.13;;;11.70;99.90;;;11.35;100.00;95400.28;5015993;28;20483;-42
2023/10/19 04:27:45;;;;;;;5.60;3.13;;;11.80;99.90;;;11.41;100.00;95405.97;5013071;28;20412;-40
2023/10/19 04:30:16;;;;;;;5.97;3.42;;;11.80;99.90;;;11.50;100.00;95403.59;5013132;28;20057;-41
2023/10/19 04:32:43;;;;;;;6.25;3.13;;;11.90;99.90;;;11.56;100.00;95414.56;5012144;28;20053;-40
2023/10/19 04:35:09;;;;;;;5.38;3.08;;;12.00;99.90;;;11.65;100.00;95411.25;5015192;28;20570;-41
2023/10/19 04:37:35;;;;;;;4.47;2.92;;;12.00;99.90;;;11.71;100.00;95401.19;4998018;28;20111;-39
2023/10/19 04:40:02;;;;;;;3.42;2.80;;;12.10;99.90;;;11.72;100.00;95395.81;5023572;28;20404;-39
2023/10/19 04:42:28;;;;;;;6.00;2.80;;;12.10;99.90;;;11.73;100.00;95394.00;5016385;28;20040;-40
2023/10/19 04:44:56;;;;;;;4.32;2.78;;;12.10;99.90;;;11.73;100.00;95400.13;5022808;28;20427;-40
2023/10/19 04:47:22;;;;;;;4.68;3.05;;;12.20;99.90;;;11.72;100.00;95393.16;5018671;28;20127;-40
2023/10/19 04:49:47;;;;;;;8.60;3.55;;;12.10;99.90;;;11.69;100.00;95400.47;5012181;28;20481;-40
2023/10/19 04:52:13;;;;;;;6.45;3.50;;;12.10;99.90;;;11.61;100.00;95393.97;5013615;28;20470;-40
2023/10/19 04:54:39;;;;;;;7.85;3.95;;;12.00;99.90;;;11.56;100.00;95396.09;5014361;28;20116;-40
2023/10/19 04:57:05;;;;;;;5.25;3.22;;;12.00;99.90;;;11.52;100.00;95392.00;5017787;28;20033;-40
2023/10/19 04:59:33;;;;;;;6.28;3.65;;;11.90;99.90;;;11.50;100.00;95385.13;5017667;28;20037;-40
2023/10/19 05:02:03;;;;;;;6.60;3.40;;;11.90;99.90;;;11.54;100.00;95384.81;5019526;28;20136;-39
2023/10/19 05:04:29;;;;;;;8.13;3.53;;;11.90;99.90;;;11.54;100.00;95376.88;5016274;28;20428;-41
2023/10/19 05:06:55;;;;;;;4.93;3.42;;;12.00;99.90;;;11.57;100.00;95389.00;5013900;28;20460;-38
2023/10/19 05:09:21;;;;;;;7.30;3.80;;;12.00;99.90;;;11.53;100.00;95372.53;5016950;28;20521;-38
2023/10/19 05:11:47;;;;;;;6.72;3.20;;;12.00;99.90;;;11.52;100.00;95377.94;5015334;28;20037;-40
2023/10/19 05:14:13;;;;;;;6.53;3.42;;;12.00;99.90;;;11.62;100.00;95373.66;5012243;28;20497;-38
2023/10/19 05:16:40;;;;;;;8.10;3.67;;;12.00;99.90;;;11.61;100.00;95372.84;5010449;28;20572;-40
2023/10/19 05:19:06;;;;;;;5.93;3.95;;;12.10;99.90;;;11.63;100.00;95376.19;5020857;28;20037;-40
2023/10/19 05:21:31;;;;;;;5.72;4.40;;;12.10;99.90;;;11.61;100.00;95379.88;5017452;28;20044;-39
2023/10/19 05:24:00;;;;;;;8.95;6.03;;;12.10;99.90;;;11.58;100.00;95385.41;5008854;28;21386;-41
2023/10/19 05:26:26;;;;;;;5.95;4.72;;;12.00;99.90;;;11.53;100.00;95393.66;5016611;28;20472;-40
2023/10/19 05:28:52;;;;;;;8.32;5.28;;;12.00;99.90;;;11.41;100.00;95389.28;5010630;28;20025;-38
2023/10/19 05:31:18;;;;;;;5.70;4.60;;;11.90;99.90;;;11.39;100.00;95396.47;5015355;28;20086;-39
2023/10/19 05:33:44;;;;;;;6.13;4.88;;;11.80;99.90;;;11.28;100.00;95394.59;5012730;28;20617;-41
2023/10/19 05:36:09;;;;;;;7.70;4.72;;;11.70;99.90;;;11.24;100.00;95398.41;5016509;28;20040;-38
2023/10/19 05:38:35;;;;;;;7.78;4.30;;;11.70;99.90;;;11.18;100.00;95394.41;4997579;28;20509;-38
2023/10/19 05:41:01;;;;;;;5.90;4.60;;;11.60;99.90;;;11.16;100.00;95395.47;5010102;28;20056;-40
2023/10/19 05:43:28;;;;;;;4.80;3.80;;;11.60;99.90;;;11.08;100.00;95388.09;5016849;28;20040;-38
2023/10/19 05:45:53;;;;;;;5.60;4.40;;;11.50;99.90;;;11.06;100.00;95388.22;5016458;28;20188;-40
2023/10/19 05:48:20;;;;;;;4.55;3.90;;;11.50;99.90;;;10.99;100.00;95380.84;5009526;28;20021;-39
2023/10/19 05:50:46;;;;;;;10.73;4.50;;;11.50;99.90;;;11.04;100.00;95384.84;5014238;28;20117;-40
2023/10/19 05:53:12;;;;;;;7.45;4.32;;;11.50;99.90;;;11.04;100.00;95386.66;5012706;28;20037;-40
2023/10/19 05:55:39;;;;;;;5.05;4.18;;;11.50;99.90;;;11.05;100.00;95389.19;5010327;28;20037;-40
2023/10/19 05:58:05;;;;;;;8.68;4.45;;;11.40;99.90;;;11.09;100.00;95389.81;5013704;28;20033;-39
2023/10/19 06:00:31;;;;;;;4.97;4.28;;;11.50;99.90;;;11.16;100.00;95401.59;5013028;28;20072;-41
2023/10/19 06:02:59;;;;;;;5.47;3.95;;;11.60;99.90;;;11.21;100.00;95404.72;5002112;28;20029;-40
2023/10/19 06:05:25;;;;;;;5.22;4.13;;;11.60;99.90;;;11.25;100.00;95400.94;5015656;28;20037;-39
2023/10/19 06:07:51;;;;;;;5.90;4.53;;;11.60;99.90;;;11.27;100.00;95396.41;5009562;28;20041;-40
2023/10/19 06:10:22;;;;;;;9.95;4.40;;;11.70;99.90;;;11.32;100.00;95405.75;5018758;28;20037;-40
2023/10/19 06:12:50;;;;;;;4.35;3.60;;;11.70;99.90;;;11.35;100.00;95411.66;5014357;28;20036;-41
2023/10/19 06:15:21;;;;;;;5.65;4.13;;;11.70;99.90;;;11.41;100.00;95407.75;5014811;28;20033;-40
2023/10/19 06:17:47;;;;;;;6.15;4.25;;;11.80;99.90;;;11.46;100.00;95413.53;5013937;28;20088;-40
2023/10/19 06:20:23;;;;;;;6.10;4.30;;;11.90;99.90;;;11.49;100.00;95405.41;5015328;28;20445;-39
2023/10/19 06:23:04;;;;;;;6.30;3.78;;;11.90;99.90;;;11.56;100.00;95413.72;5007112;28;20029;-41
2023/10/19 06:25:31;;;;;;;8.23;3.90;;;11.90;99.90;;;11.61;100.00;95412.44;5014839;28;20113;-39
2023/10/19 06:27:57;;;;;;;5.28;4.10;;;12.00;99.90;;;11.59;100.00;95401.16;5012919;28;20064;-40
2023/10/19 06:30:23;;;;;;;9.07;4.15;;;12.00;99.90;;;11.70;100.00;95416.22;5019134;28;20128;-40
2023/10/19 06:32:52;;;;;;;6.53;4.35;;;12.10;99.90;;;11.61;100.00;95401.00;5006050;28;20037;-39
2023/10/19 06:35:19;;;;;;;6.65;3.75;;;12.10;99.90;;;11.80;100.00;95421.66;5019407;28;20033;-39
2023/10/19 06:37:45;;;;;;;5.25;4.20;;;12.20;99.90;;;11.81;100.00;95408.34;5011648;28;20580;-40
2023/10/19 06:40:14;;;;;;;5.97;4.28;;;12.20;99.90;;;11.86;100.00;95410.63;5017634;28;20028;-40
2023/10/19 06:42:46;;;;;;;6.95;3.70;;;12.20;99.90;;;11.83;100.00;95405.59;5012117;28;20490;-39
2023/10/19 06:45:18;;;;;;;5.53;4.35;;;12.30;99.90;;;11.94;100.00;95421.50;5012358;28;20110;-39
2023/10/19 06:47:47;;;;;;;6.55;4.57;;;12.30;99.90;;;11.97;100.00;95412.50;5014822;28;20524;-39
2023/10/19 06:50:17;;;;;;;6.97;4.25;;;12.40;99.90;;;12.00;100.00;95410.47;5015336;28;20381;-40
2023/10/19 06:52:44;;;;;;;7.43;4.53;;;12.40;99.90;;;12.06;100.00;95397.75;5009553;28;20072;-38
2023/10/19 06:55:13;;;;;;;6.78;4.72;;;12.50;99.90;;;12.11;100.00;95401.75;5014865;28;20043;-40
2023/10/19 06:57:52;;;;;;;6.70;4.70;;;12.50;99.90;;;12.24;100.00;95404.34;5016665;28;20037;-40
2023/10/19 07:00:21;;;;;;;5.45;4.32;;;12.60;99.90;;;12.31;100.00;95413.47;5016510;28;20354;-38
2023/10/19 07:02:51;;;;;;;8.80;4.97;;;12.70;99.90;;;12.43;100.00;95398.47;5015145;28;20041;-39
2023/10/19 07:05:18;;;;;;;8.10;4.43;;;12.80;99.90;;;12.51;100.00;95397.91;5015132;28;20092;-38
2023/10/19 07:07:45;;;;;;;7.47;4.70;;;12.80;99.90;;;12.56;100.00;95407.16;4992616;28;20468;-38
2023/10/19 07:10:13;;;;;;;7.88;4.55;;;12.90;99.90;;;12.59;100.00;95411.38;5008061;28;20139;-38
2023/10/19 07:12:46;;;;;;;6.90;4.70;;;12.90;99.90;;;12.56;100.00;95399.25;5007702;28;20029;-40
2023/10/19 07:15:15;;;;;;;6.95;4.43;;;12.90;99.90;;;12.59;100.00;95403.44;5015206;28;20021;-41
2023/10/19 07:17:42;;;;;;;7.13;4.70;;;12.90;99.90;;;12.58;100.00;95397.31;5012537;28;20033;-41
2023/10/19 07:20:21;;;;;;;9.63;5.30;;;12.90;99.90;;;12.58;100.00;95409.69;5014381;28;20029;-40
2023/10/19 07:22:47;;;;;;;7.85;4.80;;;12.90;99.90;;;12.56;100.00;95401.88;5014522;28;20557;-40
2023/10/19 07:25:13;;;;;;;6.30;4.53;;;13.00;99.90;;;12.63;100.00;95404.88;5012010;28;20041;-41
2023/10/19 07:27:42;;;;;;;8.73;5.20;;;13.00;99.90;;;12.66;100.00;95402.00;5014929;28;20078;-40
2023/10/19 07:30:09;;;;;;;5.68;4.43;;;13.00;99.90;;;12.72;100.00;95406.84;5010958;28;20029;-38
2023/10/19 07:32:35;;;;;;;6.47;5.07;;;13.10;99.90;;;12.73;100.00;95397.09;5010936;28;20034;-41
2023/10/19 07:35:01;;;;;;;6.10;4.50;;;13.10;99.90;;;12.84;100.00;95401.53;5002810;28;20034;-38
2023/10/19 07:37:28;;;;;;;7.35;5.15;;;13.20;99.90;;;12.94;100.00;95397.22;5011684;28;20025;-38
2023/10/19 07:39:56;;;;;;;6.05;4.68;;;13.30;99.90;;;13.04;100.00;95397.34;5005199;28;20155;-39
2023/10/19 07:42:23;;;;;;;5.65;4.47;;;13.40;99.90;;;13.14;100.00;95398.31;5007369;28;20120;-38
2023/10/19 07:44:49;;;;;;;7.40;5.35;;;13.50;99.90;;;13.23;100.00;95396.72;5003949;28;20096;-39
2023/10/19 07:47:15;;;;;;;6.07;4.10;;;13.60;99.90;;;13.27;100.00;95384.94;5006859;28;20499;-38
2023/10/19 07:49:41;;;;;;;6.13;3.92;;;13.70;99.90;;;13.45;100.00;95387.94;5011798;28;20492;-38
2023/10/19 07:52:07;;;;;;;4.65;3.92;;;13.80;99.90;;;13.46;100.00;95371.94;5006928;28;20401;-40
2023/10/19 07:54:37;;;;;;;5.15;4.20;;;13.90;99.90;;;13.64;100.00;95374.03;5013493;28;20552;-38
2023/10/19 07:57:07;;;;;;;7.13;4.40;;;14.00;99.90;;;13.72;100.00;95366.31;5009335;28;20034;-41
2023/10/19 07:59:33;;;;;;;7.20;4.57;;;14.10;99.90;;;13.84;100.00;95375.91;5008561;28;20512;-38
2023/10/19 08:02:03;;;;;;;5.72;4.25;;;14.20;99.90;;;13.86;100.00;95373.97;5007569;28;20085;-39
2023/10/19 08:04:29;;;;;;;10.23;4.90;;;14.30;99.90;;;13.92;100.00;95373.44;5016785;28;20041;-39
2023/10/19 08:06:55;;;;;;;7.55;4.65;;;14.30;99.90;;;13.99;100.00;95387.03;5011012;28;20064;-40
2023/10/19 08:09:26;;;;;;;10.15;5.07;;;14.40;99.90;;;13.97;100.00;95388.16;5016530;28;20457;-40
2023/10/19 08:11:55;;;;;;;8.43;4.95;;;14.30;99.90;;;13.92;100.00;95381.41;5015351;28;20028;-38
2023/10/19 08:14:24;;;;;;;7.15;4.93;;;14.30;99.90;;;13.86;100.00;95384.56;5016441;28;20120;-38
2023/10/19 08:16:51;;;;;;;7.10;5.35;;;14.20;99.90;;;13.70;100.00;95370.91;5008574;28;20029;-38
2023/10/19 08:19:18;;;;;;;8.95;5.40;;;14.10;99.90;;;13.67;100.00;95357.91;5014189;28;20536;-39
2023/10/19 08:21:44;;;;;;;7.97;4.70;;;14.10;99.90;;;13.80;100.00;95379.78;5017048;28;20056;-40
2023/10/19 08:24:13;;;;;;;9.73;4.90;;;14.20;99.90;;;13.89;100.00;95384.31;5007442;28;20034;-39
2023/10/19 08:26:42;;;;;;;6.43;4.93;;;14.20;99.90;;;14.00;100.00;95387.88;5013485;28;20021;-40
2023/10/19 08:29:12;;;;;;;6.88;4.60;;;14.40;99.90;;;14.10;100.00;95387.03;5015450;28;20060;-38
2023/10/19 08:31:40;;;;;;;9.07;5.00;;;14.50;99.90;;;14.27;100.00;95384.75;5009049;28;20040;-39
2023/10/19 08:34:09;;;;;;;6.78;4.57;;;14.70;99.90;;;14.41;100.00;95373.84;5016039;28;20044;-40
2023/10/19 08:36:37;;;;;;;5.35;4.30;;;14.90;99.90;;;14.61;100.00;95377.47;5012065;28;20145;-41
2023/10/19 08:39:11;;;;;;;4.57;3.63;;;15.00;99.90;;;14.78;100.00;95372.53;5010322;28;20045;-39
2023/10/19 08:41:39;;;;;;;5.78;3.83;;;15.20;99.90;;;14.98;100.00;95378.75;5014663;28;20029;-40
2023/10/19 08:44:10;;;;;;;5.55;4.43;;;15.40;99.90;;;15.08;100.00;95375.19;5008938;28;20518;-37
2023/10/19 08:46:43;;;;;;;6.60;4.00;;;15.50;99.90;;;15.16;100.00;95377.16;5010455;28;20119;-41
2023/10/19 08:49:12;;;;;;;5.97;3.97;;;15.50;99.90;;;15.22;100.00;95373.97;5012827;28;20216;-38
2023/10/19 08:51:39;;;;;;;6.95;4.60;;;15.60;99.90;;;15.22;100.00;95373.16;5008258;28;20022;-38
2023/10/19 08:54:10;;;;;;;5.50;4.03;;;15.50;99.90;;;15.18;100.00;95367.25;5009716;28;20464;-39
2023/10/19 08:56:37;;;;;;;9.70;5.20;;;15.60;99.90;;;15.18;100.00;95371.72;5000291;28;20445;-39
2023/10/19 08:59:03;;;;;;;8.82;5.32;;;15.50;99.90;;;15.18;100.00;95369.91;5014307;28;20108;-39
2023/10/19 09:01:29;;;;;;;10.35;5.97;;;15.50;99.90;;;15.15;100.00;95370.19;5015734;28;20040;-40
2023/10/19 09:03:58;;;;;;;8.52;5.45;;;15.50;99.90;;;15.20;100.00;95375.06;5012513;28;20041;-39
2023/10/19 09:06:43;;;;;;;13.23;7.90;;;15.50;99.90;;;15.12;100.00;95362.47;5018062;28;20029;-40
2023/10/19 09:09:19;;;;;;;12.20;6.38;;;15.60;99.90;;;15.27;100.00;95373.56;5015252;28;20067;-39
2023/10/19 09:11:46;;;;;;;14.90;6.97;;;15.60;99.90;;;15.45;100.00;95374.59;5017426;28;20080;-41
2023/10/19 09:14:13;;;;;;;10.57;6.78;;;15.80;99.90;;;15.59;100.00;95353.94;5011635;28;20045;-38
2023/10/19 09:16:57;;;;;;;13.90;7.03;;;16.00;99.90;;;15.77;100.00;95362.94;5011257;28;20033;-39
2023/10/19 09:19:41;;;;;;;13.98;7.30;;;16.10;99.90;;;15.94;100.00;95361.41;5019360;28;20025;-39
2023/10/19 09:22:16;;;;;;;17.50;7.68;;;16.30;99.90;;;16.08;100.00;95365.47;5014410;28;20034;-40
2023/10/19 09:24:45;;;;;;;14.07;6.32;;;16.50;99.90;;;16.20;100.00;95369.69;5016696;28;20492;-39
2023/10/19 09:27:15;;;;;;;10.02;6.10;;;16.50;99.90;;;16.31;100.00;95370.47;4997065;28;20373;-40
2023/10/19 09:29:41;;;;;;;10.63;5.97;;;16.60;99.90;;;16.46;100.00;95363.75;4994951;28;20041;-39
2023/10/19 09:32:07;;;;;;;14.15;6.20;;;16.80;99.90;;;16.64;100.00;95366.53;4995526;28;20056;-38
2023/10/19 09:34:35;;;;;;;7.82;5.88;;;17.00;99.90;;;16.82;100.00;95361.28;5017369;28;20120;-39
2023/10/19 09:37:03;;;;;;;6.90;4.55;;;17.20;99.90;;;17.00;100.00;95347.25;5015815;28;20091;-40
2023/10/19 09:39:35;;;;;;;9.18;5.40;;;17.40;99.90;;;17.08;100.00;95345.50;5018696;28;20064;-40
2023/10/19 09:42:16;;;;;;;9.30;4.90;;;17.50;99.90;;;17.25;100.00;95354.56;5014388;28;20111;-39
2023/10/19 09:44:44;;;;;;;6.18;4.35;;;17.70;99.90;;;17.25;100.00;95343.91;5013896;28;20033;-38
2023/10/19 09:47:13;;;;;;;6.03;4.32;;;17.70;99.90;;;17.26;100.00;95340.25;5017414;28;20108;-38
2023/10/19 09:49:42;;;;;;;7.07;3.35;;;17.60;99.90;;;17.24;100.00;95344.88;5010646;28;20033;-40
2023/10/19 09:52:09;;;;;;;4.95;2.95;;;17.50;99.90;;;17.19;100.00;95344.47;5016575;28;20029;-38
2023/10/19 09:54:47;;;;;;;5.32;3.38;;;17.50;99.90;;;17.13;100.00;95334.44;5018310;28;20087;-39
2023/10/19 09:57:22;;;;;;;4.45;2.75;;;17.40;99.90;;;17.09;100.00;95347.19;5015327;28;20075;-41
2023/10/19 09:59:57;;;;;;;5.55;2.60;;;17.40;99.90;;;17.09;100.00;95343.72;4999015;28;20490;-39
2023/10/19 10:02:23;;;;;;;5.53;2.67;;;17.40;99.90;;;17.09;100.00;95333.88;5019349;28;20481;-39
2023/10/19 10:04:49;;;;;;;6.90;3.10;;;17.40;99.90;;;17.18;100.00;95341.00;5015360;28;20053;-39
2023/10/19 10:07:16;;;;;;;4.45;3.15;;;17.50;99.90;;;17.24;100.00;95355.53;5014685;28;20033;-40
2023/10/19 10:09:46;;;;;;;3.50;2.53;;;17.60;99.90;;;17.33;100.00;95343.16;5010305;28;20049;-39
2023/10/19 10:12:23;;;;;;;4.15;2.60;;;17.70;99.90;;;17.44;100.00;95345.59;5016346;28;20025;-39
2023/10/19 10:15:07;;;;;;;5.15;2.85;;;17.80;99.90;;;17.56;100.00;95343.59;5007355;28;20025;-39
2023/10/19 10:17:38;;;;;;;6.95;3.25;;;17.90;99.90;;;17.63;100.00;95339.34;5010900;28;20052;-39
2023/10/19 10:20:17;;;;;;;15.07;3.78;;;17.90;99.90;;;17.64;100.00;95340.16;5012944;28;20038;-39
2023/10/19 10:22:43;;;;;;;4.93;2.70;;;18.00;99.90;;;17.69;100.00;95336.09;5010262;28;20048;-40
2023/10/19 10:25:29;;;;;;;6.60;3.10;;;18.00;99.90;;;17.71;100.00;95330.56;5011952;28;20029;-38
2023/10/19 10:27:55;;;;;;;6.47;2.95;;;18.00;99.90;;;17.75;100.00;95329.31;5017967;28;20029;-39
2023/10/19 10:30:21;;;;;;;3.95;2.42;;;18.10;99.90;;;17.83;100.00;95328.53;5013955;28;20344;-40
2023/10/19 10:32:56;;;;;;;5.20;2.97;;;18.10;99.90;;;17.86;100.00;95322.94;5003785;28;20037;-40
2023/10/19 10:35:53;;;;;;;6.28;2.58;;;18.20;99.90;;;17.96;100.00;95313.00;5007955;28;20244;-39
2023/10/19 10:38:19;;;;;;;5.00;2.53;;;18.30;99.90;;;18.09;100.00;95318.81;5013422;28;20240;-38
2023/10/19 10:40:50;;;;;;;4.93;2.83;;;18.40;99.90;;;18.11;100.00;95316.00;5013581;28;20029;-40
2023/10/19 10:43:18;;;;;;;4.90;2.60;;;18.40;99.90;;;18.15;100.00;95321.84;5019506;28;20123;-41
2023/10/19 10:45:44;;;;;;;3.38;2.63;;;18.50;99.90;;;18.10;100.00;95323.13;5012751;28;20076;-39
2023/10/19 10:48:15;;;;;;;3.47;2.30;;;18.50;99.90;;;18.04;100.00;95317.59;5010564;28;20029;-39